Time;durP1;ratioP1;P1;durP2;ratioP2;P2;SDS_P1;SDS_P2;PMS_P1;PMS_P2;Temp;Humidity;BMP_temperature;BMP_pressure;BME280_temperature;BME280_humidity;BME280_pressure;Samples;Min_cycle;Max_cycle;Signal;HPM_P1;HPM_P2
2021/09/06 00:00:09;;;;;;;;;20.50;19.25;;;;;24.93;48.74;101575.63;5058520;28;45513;-52
2021/09/06 00:02:35;;;;;;;;;16.50;14.50;;;;;24.91;48.99;101573.09;5058882;28;45323;-53
2021/09/06 00:05:00;;;;;;;;;20.50;18.25;;;;;24.90;49.17;101571.38;5077288;28;45483;-50
2021/09/06 00:07:25;;;;;;;;;22.75;21.25;;;;;24.90;48.81;101579.34;5076550;28;45465;-53
2021/09/06 00:09:59;;;;;;;;;17.25;16.75;;;;;24.91;48.81;101578.38;5076580;28;45387;-49
2021/09/06 00:12:24;;;;;;;;;16.75;16.75;;;;;24.90;48.68;101575.84;5076766;28;45374;-47
2021/09/06 00:14:49;;;;;;;;;18.00;15.75;;;;;24.90;48.93;101571.38;5076597;28;45277;-52
2021/09/06 00:17:15;;;;;;;;;17.00;16.75;;;;;24.90;49.08;101571.38;5076419;28;45323;-53
2021/09/06 00:19:40;;;;;;;;;17.50;17.50;;;;;24.91;49.07;101572.25;5076729;28;45584;-51
2021/09/06 00:22:05;;;;;;;;;18.25;17.50;;;;;24.90;48.53;101571.38;5076861;28;45502;-44
2021/09/06 00:24:33;;;;;;;;;19.50;19.25;;;;;24.89;49.03;101569.66;5076649;28;45405;-44
2021/09/06 00:26:58;;;;;;;;;19.50;18.25;;;;;24.90;49.12;101573.19;5058092;28;48103;-44
2021/09/06 00:29:24;;;;;;;;;19.75;17.50;;;;;24.89;48.52;101574.13;5076216;28;45354;-45
2021/09/06 00:31:49;;;;;;;;;18.00;17.00;;;;;24.88;49.10;101569.78;5076495;28;45336;-49
2021/09/06 00:34:14;;;;;;;;;18.75;17.50;;;;;24.89;48.32;101568.84;5076289;28;45574;-51
2021/09/06 00:36:40;;;;;;;;;15.25;15.25;;;;;24.88;49.07;101567.97;5076299;28;45796;-51
2021/09/06 00:39:05;;;;;;;;;15.75;15.00;;;;;24.86;48.32;101567.19;5076531;28;45339;-50
2021/09/06 00:41:30;;;;;;;;;18.25;17.00;;;;;24.88;48.50;101567.97;5076339;28;45297;-52
2021/09/06 00:43:56;;;;;;;;;16.25;16.25;;;;;24.88;48.36;101575.09;5058133;28;45252;-45
2021/09/06 00:46:23;;;;;;;;;16.25;16.25;;;;;24.86;48.99;101569.84;5075960;28;45375;-48
2021/09/06 00:48:49;;;;;;;;;18.00;17.75;;;;;24.87;48.77;101571.56;5076006;27;45758;-48
2021/09/06 00:51:14;;;;;;;;;16.50;16.25;;;;;24.87;48.98;101579.50;5076105;28;45332;-45
2021/09/06 00:53:40;;;;;;;;;17.50;16.50;;;;;24.85;48.34;101569.03;5076274;28;45653;-44
2021/09/06 00:56:05;;;;;;;;;20.00;17.00;;;;;24.87;48.19;101576.88;5076286;28;45330;-44
2021/09/06 00:58:31;;;;;;;;;18.00;18.00;;;;;24.83;48.26;101575.38;5075713;28;45416;-46
2021/09/06 01:00:56;;;;;;;;;18.00;17.50;;;;;24.88;48.79;101589.19;5076032;28;45496;-48
2021/09/06 01:03:22;;;;;;;;;19.50;18.75;;;;;24.86;49.08;101580.47;5076494;28;45262;-45
2021/09/06 01:05:47;;;;;;;;;16.00;16.00;;;;;24.85;48.33;101582.28;5079300;28;46555;-44
2021/09/06 01:08:13;;;;;;;;;17.00;17.00;;;;;24.87;48.45;101587.47;5079140;27;45461;-44
2021/09/06 01:10:38;;;;;;;;;18.25;17.50;;;;;24.88;48.31;101583.03;5079680;28;45410;-44
2021/09/06 01:13:03;;;;;;;;;18.50;16.50;;;;;24.85;48.66;101576.13;5079623;28;45588;-48
2021/09/06 01:15:29;;;;;;;;;20.25;17.50;;;;;24.85;48.28;101581.44;5078985;27;45802;-45
2021/09/06 01:17:55;;;;;;;;;20.25;19.25;;;;;24.85;48.63;101576.97;5078991;28;45365;-44
2021/09/06 01:20:20;;;;;;;;;17.25;17.25;;;;;24.85;48.46;101578.78;5079168;28;45646;-46
2021/09/06 01:22:46;;;;;;;;;19.00;17.00;;;;;24.85;48.82;101573.47;5079437;28;45227;-46
2021/09/06 01:25:14;;;;;;;;;18.25;18.25;;;;;24.84;48.34;101569.13;5079012;28;45223;-45
2021/09/06 01:27:39;;;;;;;;;19.50;17.50;;;;;24.84;48.81;101571.78;5079060;28;45752;-45
2021/09/06 01:30:06;;;;;;;;;15.25;15.25;;;;;24.84;48.39;101577.06;5079503;28;45621;-49
2021/09/06 01:32:31;;;;;;;;;16.75;16.25;;;;;24.84;48.65;101572.63;5079233;27;45665;-46
2021/09/06 01:34:56;;;;;;;;;20.75;16.50;;;;;24.85;48.48;101578.78;5078767;27;45323;-45
2021/09/06 01:37:22;;;;;;;;;19.25;16.50;;;;;24.83;48.86;101578.84;5078942;28;45356;-45
2021/09/06 01:39:47;;;;;;;;;21.00;16.75;;;;;24.85;48.63;101578.78;5079157;28;45454;-46
2021/09/06 01:42:13;;;;;;;;;21.00;18.25;;;;;24.84;48.33;101582.38;5079400;27;45501;-47
2021/09/06 01:44:38;;;;;;;;;18.00;16.25;;;;;24.84;48.91;101574.44;5079086;28;46589;-45
2021/09/06 01:47:04;;;;;;;;;18.00;16.75;;;;;24.82;48.68;101584.28;5079042;28;45374;-46
2021/09/06 01:49:29;;;;;;;;;21.00;20.75;;;;;24.84;48.40;101585.03;5079003;28;45438;-55
2021/09/06 01:51:54;;;;;;;;;14.50;14.50;;;;;24.83;48.29;101583.31;5060845;28;45323;-52
2021/09/06 01:54:20;;;;;;;;;16.50;15.75;;;;;24.83;48.43;101588.63;5078417;28;46301;-48
2021/09/06 01:56:45;;;;;;;;;17.00;15.50;;;;;24.82;48.24;101589.56;5078638;28;45387;-47
2021/09/06 01:59:10;;;;;;;;;18.25;17.75;;;;;24.83;48.32;101588.63;5060631;28;45728;-46
2021/09/06 02:01:36;;;;;;;;;18.25;16.00;;;;;24.82;48.63;101587.75;5079279;28;45432;-47
2021/09/06 02:04:01;;;;;;;;;18.00;17.25;;;;;24.81;48.17;101591.34;5078425;28;46511;-45
2021/09/06 02:06:26;;;;;;;;;15.00;15.00;;;;;24.83;48.54;101589.47;5060351;28;45750;-47
2021/09/06 02:08:52;;;;;;;;;20.00;18.50;;;;;24.81;48.75;101585.22;5078548;28;45603;-47
2021/09/06 02:11:17;;;;;;;;;19.00;16.50;;;;;24.81;48.59;101590.53;5078674;28;45636;-44
2021/09/06 02:13:43;;;;;;;;;12.75;12.75;;;;;24.81;48.61;101583.41;5078188;27;46444;-44
2021/09/06 02:16:08;;;;;;;;;19.00;17.50;;;;;24.80;48.70;101584.38;5078151;28;45293;-47
2021/09/06 02:18:33;;;;;;;;;17.00;17.00;;;;;24.81;48.69;101577.25;5078425;28;45224;-46
2021/09/06 02:20:59;;;;;;;;;17.75;16.00;;;;;24.82;48.68;101586.91;5078573;27;45332;-45
2021/09/06 02:23:25;;;;;;;;;17.25;17.25;;;;;24.81;48.15;101583.41;5078134;28;45324;-49
2021/09/06 02:25:50;;;;;;;;;17.50;16.75;;;;;24.80;48.15;101580.84;5078265;28;45279;-45
2021/09/06 02:28:16;;;;;;;;;17.75;16.75;;;;;24.81;48.79;101583.41;5078246;28;45375;-49
2021/09/06 02:30:41;;;;;;;;;15.50;13.75;;;;;24.79;48.36;101582.66;5078612;28;45568;-49
2021/09/06 02:33:07;;;;;;;;;16.25;16.25;;;;;24.81;48.69;101587.88;5077372;28;45315;-48
2021/09/06 02:35:32;;;;;;;;;16.00;14.50;;;;;24.79;48.29;101589.75;5078082;28;45869;-46
2021/09/06 02:37:57;;;;;;;;;17.00;17.00;;;;;24.80;48.28;101591.47;5078253;27;45390;-46
2021/09/06 02:40:23;;;;;;;;;18.25;17.50;;;;;24.80;48.46;101592.31;5078212;27;45577;-49
2021/09/06 02:42:49;;;;;;;;;17.25;17.25;;;;;24.80;48.58;101592.31;5077520;27;46410;-48
2021/09/06 02:45:14;;;;;;;;;18.75;16.50;;;;;24.79;48.81;101595.94;5077906;28;45316;-45
2021/09/06 02:47:44;;;;;;;;;18.50;17.00;;;;;24.79;48.23;101598.56;5078317;28;45373;-50
2021/09/06 02:50:10;;;;;;;;;21.00;17.75;;;;;24.79;48.33;101595.06;5078211;27;45164;-45
2021/09/06 02:52:35;;;;;;;;;12.00;12.00;;;;;24.79;48.33;101603.00;5077652;28;47785;-54
2021/09/06 02:55:00;;;;;;;;;17.25;16.00;;;;;24.79;48.56;101605.66;5077571;28;45366;-52
2021/09/06 02:57:26;;;;;;;;;16.00;16.00;;;;;24.79;48.77;101603.00;5077699;27;45276;-46
2021/09/06 02:59:51;;;;;;;;;15.00;13.25;;;;;24.77;48.62;101604.91;5077770;28;45303;-48
2021/09/06 03:02:17;;;;;;;;;18.00;16.00;;;;;24.77;48.43;101599.59;5077458;28;46362;-46
2021/09/06 03:04:42;;;;;;;;;18.75;16.75;;;;;24.78;48.23;101603.94;5077939;28;45411;-45
2021/09/06 03:07:08;;;;;;;;;19.00;17.50;;;;;24.76;48.67;101605.84;5077653;28;45351;-49
2021/09/06 03:09:33;;;;;;;;;21.50;18.75;;;;;24.76;48.65;101605.84;5077424;28;45507;-45
2021/09/06 03:11:58;;;;;;;;;16.00;15.75;;;;;24.74;48.50;101605.94;5077280;28;46362;-53
2021/09/06 03:14:24;;;;;;;;;18.00;18.00;;;;;24.75;48.48;101599.69;5077242;28;45345;-49
2021/09/06 03:16:50;;;;;;;;;15.25;15.25;;;;;24.73;48.58;101600.75;5077384;28;45338;-51
2021/09/06 03:19:16;;;;;;;;;19.50;17.00;;;;;24.74;48.41;101602.47;5077670;28;45442;-49
2021/09/06 03:21:41;;;;;;;;;15.50;15.50;;;;;24.73;48.40;101598.09;5076152;28;48337;-53
2021/09/06 03:24:07;;;;;;;;;15.00;14.75;;;;;24.73;48.21;101598.09;5077289;27;45451;-50
2021/09/06 03:26:32;;;;;;;;;17.00;17.00;;;;;24.72;47.90;101593.75;5077129;28;45251;-52
2021/09/06 03:28:57;;;;;;;;;17.00;16.50;;;;;24.70;47.86;101597.34;5076537;28;45204;-52
2021/09/06 03:31:23;;;;;;;;;20.50;15.50;;;;;24.70;48.43;101597.34;5077044;28;46290;-48
2021/09/06 03:33:48;;;;;;;;;19.75;19.75;;;;;24.71;47.81;101598.16;5076889;28;48336;-45
2021/09/06 03:36:13;;;;;;;;;21.50;18.25;;;;;24.70;48.07;101597.34;5077510;28;45213;-45
2021/09/06 03:38:39;;;;;;;;;19.00;18.75;;;;;24.70;48.43;101605.28;5077395;28;45280;-43
2021/09/06 03:41:04;;;;;;;;;17.25;17.00;;;;;24.70;48.07;101602.63;5076891;28;45493;-52
2021/09/06 03:43:30;;;;;;;;;18.00;17.00;;;;;24.69;48.56;101597.44;5077081;28;45351;-45
2021/09/06 03:45:55;;;;;;;;;18.25;16.00;;;;;24.68;48.52;101593.06;5077165;27;45270;-47
2021/09/06 03:48:20;;;;;;;;;20.25;18.00;;;;;24.69;48.17;101589.47;5077133;28;45604;-44
2021/09/06 03:50:46;;;;;;;;;19.25;19.00;;;;;24.68;48.66;101599.22;5092990;27;45639;-43
2021/09/06 03:53:11;;;;;;;;;21.50;20.25;;;;;24.68;48.57;101599.22;5076769;28;45343;-44
2021/09/06 03:55:37;;;;;;;;;20.50;18.50;;;;;24.69;48.24;101600.09;5076867;27;45410;-46
2021/09/06 03:58:02;;;;;;;;;19.50;19.50;;;;;24.68;48.31;101591.28;5077230;27;45371;-44
2021/09/06 04:00:27;;;;;;;;;18.50;16.25;;;;;24.67;48.11;101592.19;5076342;27;46620;-43
2021/09/06 04:02:53;;;;;;;;;22.00;19.25;;;;;24.68;48.77;101590.41;5076844;27;45359;-47
2021/09/06 04:05:18;;;;;;;;;22.75;21.00;;;;;24.67;48.25;101592.19;5076727;27;45301;-47
2021/09/06 04:07:43;;;;;;;;;18.25;18.25;;;;;24.66;48.32;101585.16;5077267;28;45458;-47
2021/09/06 04:10:10;;;;;;;;;20.00;20.00;;;;;24.68;48.19;101590.41;5076534;27;46339;-43
2021/09/06 04:12:36;;;;;;;;;16.50;16.50;;;;;24.69;48.41;101594.78;5058437;28;45830;-49
2021/09/06 04:15:02;;;;;;;;;21.75;21.25;;;;;24.68;48.39;101593.91;5058449;28;45283;-49
2021/09/06 04:17:28;;;;;;;;;22.25;20.50;;;;;24.69;48.79;101594.78;5076704;28;45345;-50
2021/09/06 04:19:53;;;;;;;;;21.00;19.25;;;;;24.68;48.21;101599.22;5076391;28;46470;-43
2021/09/06 04:22:19;;;;;;;;;20.25;18.50;;;;;24.69;48.82;101594.78;5076436;27;45457;-43
2021/09/06 04:24:44;;;;;;;;;20.00;20.00;;;;;24.69;48.72;101595.63;5076870;28;45253;-45
2021/09/06 04:27:09;;;;;;;;;18.75;18.00;;;;;24.69;48.27;101598.28;5076700;28;45601;-42
2021/09/06 04:29:35;;;;;;;;;21.50;17.50;;;;;24.69;48.44;101600.94;5076283;28;45452;-43
2021/09/06 04:32:00;;;;;;;;;23.25;21.00;;;;;24.72;48.92;101601.69;5076156;28;45391;-45
2021/09/06 04:34:25;;;;;;;;;17.50;17.50;;;;;24.70;48.89;101601.75;5076451;28;45268;-51
2021/09/06 04:36:51;;;;;;;;;20.00;18.25;;;;;24.70;48.44;101607.06;5076698;28;45504;-46
2021/09/06 04:39:16;;;;;;;;;22.50;21.25;;;;;24.68;48.39;101604.53;5078066;28;46369;-47
2021/09/06 04:41:41;;;;;;;;;20.50;19.00;;;;;24.68;48.62;101608.94;5079751;27;45323;-48
2021/09/06 04:44:07;;;;;;;;;15.75;14.25;;;;;24.67;48.89;101608.09;5079885;28;45412;-49
2021/09/06 04:46:32;;;;;;;;;17.00;16.75;;;;;24.67;48.88;101621.34;5080054;28;45365;-47
2021/09/06 04:48:57;;;;;;;;;18.50;17.00;;;;;24.66;48.35;101619.63;5079527;28;45402;-54
2021/09/06 04:51:23;;;;;;;;;26.25;21.75;;;;;24.66;48.43;101627.56;5079647;28;45457;-49
2021/09/06 04:53:48;;;;;;;;;19.25;16.25;;;;;24.65;48.65;101625.88;5080102;27;45342;-49
2021/09/06 04:56:14;;;;;;;;;23.75;20.75;;;;;24.66;48.76;101626.75;5079920;27;45327;-54
2021/09/06 04:58:40;;;;;;;;;19.25;17.50;;;;;24.66;48.43;101626.75;5079122;28;46787;-48
2021/09/06 05:01:06;;;;;;;;;18.75;18.75;;;;;24.64;48.02;101629.47;5079730;27;45359;-49
2021/09/06 05:03:32;;;;;;;;;22.75;19.50;;;;;24.64;48.52;101629.47;5079545;28;45282;-44
2021/09/06 05:06:01;;;;;;;;;18.50;17.50;;;;;24.65;48.14;101640.94;5079753;28;45304;-44
2021/09/06 05:08:26;;;;;;;;;17.75;17.75;;;;;24.60;48.22;101630.63;5079278;28;45433;-43
2021/09/06 05:10:53;;;;;;;;;22.50;19.75;;;;;24.63;48.10;101638.38;5079169;28;45349;-43
2021/09/06 05:13:18;;;;;;;;;20.75;18.50;;;;;24.62;48.59;101636.69;5079733;27;45366;-43
2021/09/06 05:15:44;;;;;;;;;19.00;18.00;;;;;24.62;48.51;101639.34;5079680;27;45580;-44
2021/09/06 05:18:10;;;;;;;;;17.50;16.25;;;;;24.62;48.54;101641.97;5079103;28;46456;-43
2021/09/06 05:20:36;;;;;;;;;18.25;17.75;;;;;24.61;48.48;101645.56;5079339;28;45321;-45
2021/09/06 05:23:01;;;;;;;;;20.00;18.25;;;;;24.60;48.62;101643.88;5079309;28;45242;-45
2021/09/06 05:25:27;;;;;;;;;19.25;16.50;;;;;24.60;48.55;101650.94;5079330;27;45545;-45
2021/09/06 05:27:52;;;;;;;;;21.00;21.00;;;;;24.59;48.64;101655.41;5079090;28;46329;-44
2021/09/06 05:30:17;;;;;;;;;18.25;16.75;;;;;24.59;48.21;101663.38;5079175;27;45271;-43
2021/09/06 05:32:43;;;;;;;;;19.75;19.00;;;;;24.60;48.55;101673.03;5079239;28;45657;-44
2021/09/06 05:35:08;;;;;;;;;20.00;19.00;;;;;24.59;48.51;101667.78;5079206;28;45531;-44
2021/09/06 05:37:34;;;;;;;;;17.25;17.25;;;;;24.59;48.08;101673.97;5078857;28;46543;-43
2021/09/06 05:39:59;;;;;;;;;18.00;17.75;;;;;24.59;48.43;101673.97;5078793;27;45275;-46
2021/09/06 05:42:25;;;;;;;;;19.25;16.50;;;;;24.58;47.78;101688.16;5079049;28;45220;-44
2021/09/06 05:44:50;;;;;;;;;15.50;15.50;;;;;24.59;48.14;101689.00;5079478;28;45668;-44
2021/09/06 05:47:18;;;;;;;;;18.75;17.00;;;;;24.58;48.23;101682.84;5078679;27;46258;-47
2021/09/06 05:49:43;;;;;;;;;22.50;21.75;;;;;24.58;47.88;101696.09;5078414;28;45831;-46
2021/09/06 05:52:09;;;;;;;;;16.25;16.25;;;;;24.57;48.05;101689.09;5078148;27;45410;-45
2021/09/06 05:54:34;;;;;;;;;23.50;17.00;;;;;24.57;47.77;101689.09;5078805;27;45581;-44
2021/09/06 05:57:00;;;;;;;;;17.00;16.25;;;;;24.57;47.74;101694.41;5078554;27;45493;-50
2021/09/06 05:59:25;;;;;;;;;20.75;18.25;;;;;24.59;47.97;101697.81;5078416;27;45466;-48
2021/09/06 06:01:50;;;;;;;;;21.00;18.00;;;;;24.58;48.22;101698.75;5079063;28;45354;-44
2021/09/06 06:04:16;;;;;;;;;23.75;19.00;;;;;24.58;47.70;101704.06;5078829;28;45364;-46
2021/09/06 06:06:41;;;;;;;;;22.25;21.25;;;;;24.58;47.82;101706.72;5078488;27;45509;-45
2021/09/06 06:09:06;;;;;;;;;18.50;17.50;;;;;24.58;47.67;101706.72;5078186;27;46034;-47
2021/09/06 06:11:32;;;;;;;;;20.00;16.00;;;;;24.58;48.25;101712.00;5078567;27;45312;-45
2021/09/06 06:13:57;;;;;;;;;20.00;19.25;;;;;24.57;47.66;101710.31;5078567;28;45331;-50
2021/09/06 06:16:23;;;;;;;;;20.00;19.25;;;;;24.58;47.63;101712.00;5078436;27;46416;-52
2021/09/06 06:18:48;;;;;;;;;18.75;18.50;;;;;24.59;48.21;101720.81;5078276;28;45250;-48
2021/09/06 06:21:13;;;;;;;;;18.00;17.50;;;;;24.58;48.30;101719.13;5078419;28;45317;-45
2021/09/06 06:23:39;;;;;;;;;21.50;20.00;;;;;24.59;47.67;101716.38;5078457;27;45311;-44
2021/09/06 06:26:04;;;;;;;;;18.00;17.50;;;;;24.59;48.36;101721.66;5078190;28;46599;-43
2021/09/06 06:28:29;;;;;;;;;20.00;18.00;;;;;24.60;47.80;101719.84;5078093;28;50543;-48
2021/09/06 06:30:55;;;;;;;;;19.25;18.00;;;;;24.61;47.81;101722.44;5078409;28;45338;-43
2021/09/06 06:33:20;;;;;;;;;20.25;18.75;;;;;24.61;47.95;101725.09;5078746;28;45217;-53
2021/09/06 06:35:45;;;;;;;;;19.00;19.00;;;;;24.61;47.81;101719.78;5077885;28;45468;-48
2021/09/06 06:38:11;;;;;;;;;19.75;19.00;;;;;24.61;48.12;101725.09;5077792;28;45347;-44
2021/09/06 06:40:36;;;;;;;;;20.75;20.75;;;;;24.62;47.89;101726.78;5078060;27;45376;-48
2021/09/06 06:43:02;;;;;;;;;20.50;19.25;;;;;24.63;47.82;101730.28;5078204;28;45663;-47
2021/09/06 06:45:27;;;;;;;;;18.50;17.50;;;;;24.63;47.94;101728.50;5077845;27;45421;-45
2021/09/06 06:47:53;;;;;;;;;20.00;18.00;;;;;24.64;47.77;101724.88;5078131;28;45423;-44
2021/09/06 06:50:18;;;;;;;;;20.00;18.75;;;;;24.62;47.58;101720.63;5077851;28;45446;-45
2021/09/06 06:52:44;;;;;;;;;16.75;16.75;;;;;24.65;48.40;101731.06;5078055;28;45300;-44
2021/09/06 06:55:10;;;;;;;;;20.25;18.50;;;;;24.66;47.97;101728.31;5077477;27;46306;-45
2021/09/06 06:57:35;;;;;;;;;16.00;16.00;;;;;24.66;48.48;101730.97;5059470;28;45290;-46
2021/09/06 07:00:02;;;;;;;;;21.00;19.25;;;;;24.67;48.49;101735.31;5077545;27;45344;-43
2021/09/06 07:02:28;;;;;;;;;20.50;19.50;;;;;24.66;48.72;101738.91;5077734;27;45320;-48
2021/09/06 07:04:54;;;;;;;;;24.75;24.50;;;;;24.68;47.95;101742.34;5077709;27;47026;-44
2021/09/06 07:07:19;;;;;;;;;18.50;17.25;;;;;24.69;48.37;101735.28;5077277;28;45913;-44
2021/09/06 07:09:45;;;;;;;;;21.75;20.75;;;;;24.69;48.67;101736.13;5077631;28;45408;-47
2021/09/06 07:12:10;;;;;;;;;18.75;16.25;;;;;24.70;48.35;101729.88;5077820;28;45544;-44
2021/09/06 07:14:35;;;;;;;;;17.00;15.00;;;;;24.72;48.35;101736.88;5077173;28;45375;-43
2021/09/06 07:17:01;;;;;;;;;18.75;16.25;;;;;24.72;47.90;101734.22;5077533;28;45265;-44
2021/09/06 07:19:26;;;;;;;;;20.00;20.00;;;;;24.73;48.39;101741.25;5077862;28;45879;-44
2021/09/06 07:21:52;;;;;;;;;20.50;20.50;;;;;24.74;48.50;101742.97;5077769;28;45580;-44
2021/09/06 07:24:17;;;;;;;;;21.25;20.00;;;;;24.74;48.35;101748.25;5077164;28;46117;-44
2021/09/06 07:26:42;;;;;;;;;18.75;17.25;;;;;24.74;48.44;101746.44;5077222;28;45423;-45
2021/09/06 07:29:08;;;;;;;;;20.00;19.75;;;;;24.75;48.42;101750.81;5077111;27;45382;-45
2021/09/06 07:31:33;;;;;;;;;19.00;19.00;;;;;24.75;48.14;101756.09;5077527;28;45416;-49
2021/09/06 07:33:58;;;;;;;;;23.50;22.25;;;;;24.77;47.91;101756.00;5077045;28;45330;-44
2021/09/06 07:36:24;;;;;;;;;17.25;17.25;;;;;24.78;48.19;101763.03;5077444;27;45308;-45
2021/09/06 07:38:49;;;;;;;;;19.25;17.25;;;;;24.79;48.12;101756.78;5076986;28;45295;-49
2021/09/06 07:41:14;;;;;;;;;19.25;18.25;;;;;24.78;47.25;101757.72;5077155;28;45492;-47
2021/09/06 07:43:41;;;;;;;;;21.50;19.50;;;;;24.79;47.23;101759.44;5076793;28;45449;-52
2021/09/06 07:46:06;;;;;;;;;17.50;16.50;;;;;24.78;47.11;101757.72;5076993;27;45265;-47
2021/09/06 07:48:32;;;;;;;;;20.25;18.50;;;;;24.80;47.77;101761.13;5077152;28;45312;-47
2021/09/06 07:50:57;;;;;;;;;21.75;20.00;;;;;24.80;47.23;101767.31;5077544;27;45521;-52
2021/09/06 07:53:23;;;;;;;;;21.00;19.50;;;;;24.81;46.92;101765.50;5076520;27;46242;-46
2021/09/06 07:55:48;;;;;;;;;20.25;19.25;;;;;24.82;47.00;101767.22;5076721;27;45778;-47
2021/09/06 07:58:14;;;;;;;;;19.25;18.25;;;;;24.82;47.57;101772.50;5076831;27;45446;-50
2021/09/06 08:00:40;;;;;;;;;17.50;17.00;;;;;24.83;47.05;101774.22;5058699;28;45597;-46
2021/09/06 08:03:05;;;;;;;;;15.75;14.00;;;;;24.84;47.44;101767.97;5076611;28;45440;-53
2021/09/06 08:05:32;;;;;;;;;18.75;17.75;;;;;24.83;47.24;101772.41;5076686;28;45337;-45
2021/09/06 08:07:58;;;;;;;;;21.25;19.50;;;;;24.86;47.62;101779.31;5076921;27;45438;-46
2021/09/06 08:10:23;;;;;;;;;21.25;18.25;;;;;24.85;47.26;101781.13;5077129;28;45636;-44
2021/09/06 08:12:49;;;;;;;;;20.25;19.00;;;;;24.88;47.67;101793.34;5058022;28;45974;-48
2021/09/06 08:15:15;;;;;;;;;19.25;17.50;;;;;24.88;47.20;101790.69;5076062;28;45332;-52
2021/09/06 08:17:41;;;;;;;;;18.50;18.00;;;;;24.89;47.40;101787.09;5076640;28;45437;-50
2021/09/06 08:20:11;;;;;;;;;20.75;20.00;;;;;24.89;47.23;101789.75;5076799;28;45461;-48
2021/09/06 08:22:38;;;;;;;;;21.25;18.00;;;;;24.90;47.03;101794.13;5076565;27;46460;-50
2021/09/06 08:25:05;;;;;;;;;16.00;14.75;;;;;24.92;46.87;101797.53;5076381;28;45437;-47
2021/09/06 08:27:31;;;;;;;;;18.00;18.00;;;;;24.92;46.60;101794.88;5058735;28;45368;-44
2021/09/06 08:29:56;;;;;;;;;20.50;15.75;;;;;24.92;46.51;101791.38;5077192;28;45486;-46
2021/09/06 08:32:22;;;;;;;;;15.75;15.75;;;;;24.94;46.68;101793.00;5076387;28;45300;-45
2021/09/06 08:34:49;;;;;;;;;17.25;16.50;;;;;24.94;46.63;101784.19;5076167;28;45248;-46
2021/09/06 08:37:15;;;;;;;;;17.25;16.25;;;;;24.95;46.29;101791.19;5076451;28;45218;-48
2021/09/06 08:39:41;;;;;;;;;19.75;19.25;;;;;24.93;45.90;101786.00;5076656;27;45488;-44
2021/09/06 08:42:07;;;;;;;;;12.50;12.25;;;;;24.97;45.89;101786.66;5076261;28;46289;-44
2021/09/06 08:44:33;;;;;;;;;19.75;18.00;;;;;24.97;45.88;101789.31;5075458;28;45893;-44
2021/09/06 08:46:59;;;;;;;;;18.00;18.00;;;;;24.98;45.82;101791.84;5076767;28;45410;-46
2021/09/06 08:49:25;;;;;;;;;18.00;17.25;;;;;24.98;46.42;101783.91;5076450;28;45467;-47
2021/09/06 08:51:51;;;;;;;;;15.00;15.00;;;;;24.96;46.15;101783.16;5076174;27;45430;-44
2021/09/06 08:54:16;;;;;;;;;20.75;15.00;;;;;24.99;46.21;101782.97;5076077;27;45265;-45
2021/09/06 08:56:42;;;;;;;;;14.25;13.50;;;;;25.01;46.56;101788.19;5076277;28;45410;-48
2021/09/06 08:59:07;;;;;;;;;18.25;18.25;;;;;25.00;46.63;101789.97;5076299;28;45494;-51
2021/09/06 09:01:41;;;;;;;;;18.00;17.00;;;;;25.00;45.98;101792.63;5075869;27;46128;-47
2021/09/06 09:04:17;;;;;;;;;20.75;18.75;;;;;25.03;45.89;101794.22;5073995;27;45452;-45
2021/09/06 09:06:43;;;;;;;;;19.50;15.50;;;;;25.05;46.43;101796.81;5076140;27;45249;-51
2021/09/06 09:09:20;;;;;;;;;22.25;17.75;;;;;25.05;46.10;101788.84;5058183;28;45624;-44
2021/09/06 09:12:00;;;;;;;;;19.25;16.25;;;;;25.06;45.70;101779.97;5076065;28;45276;-45
2021/09/06 09:14:26;;;;;;;;;16.75;16.75;;;;;25.06;45.74;101786.09;5076101;27;45813;-46
2021/09/06 09:16:56;;;;;;;;;18.00;16.00;;;;;25.05;46.16;101780.91;5076067;28;45194;-45
2021/09/06 09:19:23;;;;;;;;;16.00;15.25;;;;;25.07;45.92;101781.66;5076364;28;45556;-46
2021/09/06 09:21:57;;;;;;;;;18.00;15.50;;;;;25.07;45.79;101784.31;5075799;28;46503;-45
2021/09/06 09:24:24;;;;;;;;;20.25;17.25;;;;;25.04;46.01;101776.53;5075760;28;45273;-49
2021/09/06 09:26:57;;;;;;;;;16.75;16.75;;;;;25.08;46.05;101780.72;5078059;28;45460;-45
2021/09/06 09:29:23;;;;;;;;;17.00;15.25;;;;;25.09;45.79;101782.41;5079219;28;45404;-45
2021/09/06 09:31:49;;;;;;;;;20.25;20.25;;;;;25.09;45.88;101782.41;5060848;28;45457;-46
2021/09/06 09:34:16;;;;;;;;;19.00;18.00;;;;;25.10;46.16;101786.75;5079031;27;45369;-44
2021/09/06 09:36:42;;;;;;;;;20.50;17.25;;;;;25.09;46.22;101790.34;5079179;28;45297;-46
2021/09/06 09:39:15;;;;;;;;;18.00;15.00;;;;;25.09;46.32;101793.88;5079216;27;45343;-44
2021/09/06 09:41:44;;;;;;;;;17.50;17.50;;;;;25.10;46.10;101794.72;5060629;28;48352;-44
2021/09/06 09:44:21;;;;;;;;;17.50;14.50;;;;;25.10;46.15;101790.28;5060772;28;45619;-44
2021/09/06 09:47:01;;;;;;;;;18.00;16.50;;;;;25.11;45.81;101791.13;5079104;28;45381;-47
2021/09/06 09:49:29;;;;;;;;;18.50;18.00;;;;;25.11;45.90;101786.69;5079076;27;45343;-44
2021/09/06 09:51:55;;;;;;;;;19.25;16.50;;;;;25.12;46.14;101787.53;5060592;28;47196;-46
2021/09/06 09:54:21;;;;;;;;;20.75;17.25;;;;;25.12;46.11;101785.75;5078692;27;45428;-45
2021/09/06 09:56:48;;;;;;;;;18.75;16.50;;;;;25.13;45.60;101783.94;5078860;28;45459;-45
2021/09/06 09:59:14;;;;;;;;;14.50;14.00;;;;;25.12;45.67;101776.91;5078791;28;45569;-44
2021/09/06 10:01:44;;;;;;;;;16.00;15.25;;;;;25.14;46.13;101781.19;5078726;28;46304;-44
2021/09/06 10:04:12;;;;;;;;;18.25;16.75;;;;;25.15;45.75;101784.69;5078604;28;45406;-43
2021/09/06 10:06:40;;;;;;;;;17.25;16.50;;;;;25.15;46.11;101782.88;5078724;27;45386;-44
2021/09/06 10:09:06;;;;;;;;;15.75;15.75;;;;;25.16;45.45;101781.09;5079035;28;45766;-44
2021/09/06 10:11:39;;;;;;;;;21.50;18.75;;;;;25.17;45.29;101790.78;5078677;28;46208;-48
2021/09/06 10:14:15;;;;;;;;;21.25;17.75;;;;;25.17;45.19;101782.81;5078828;28;45385;-48
2021/09/06 10:16:41;;;;;;;;;16.00;15.75;;;;;25.18;45.27;101787.19;5078647;28;45382;-47
2021/09/06 10:19:08;;;;;;;;;16.25;16.25;;;;;25.20;46.02;101789.72;5078611;27;45343;-45
2021/09/06 10:21:51;;;;;;;;;15.25;13.75;;;;;25.20;45.81;101790.56;5078646;27;46224;-47
2021/09/06 10:24:19;;;;;;;;;18.25;16.75;;;;;25.19;45.39;101775.59;5078472;28;45884;-45
2021/09/06 10:26:47;;;;;;;;;21.00;17.25;;;;;25.21;45.58;101779.00;5078328;28;45324;-44
2021/09/06 10:29:13;;;;;;;;;12.00;12.00;;;;;25.21;44.98;101776.34;5078508;28;45403;-48
2021/09/06 10:31:38;;;;;;;;;18.25;18.00;;;;;25.22;45.25;101778.06;5078100;28;45378;-44
2021/09/06 10:34:04;;;;;;;;;16.25;15.00;;;;;25.23;45.29;101777.13;5078506;28;45325;-49
2021/09/06 10:36:29;;;;;;;;;15.25;13.75;;;;;25.22;45.33;101775.41;5077864;27;45306;-47
2021/09/06 10:39:02;;;;;;;;;17.50;17.00;;;;;25.24;45.45;101770.03;5078241;27;45302;-46
2021/09/06 10:41:28;;;;;;;;;17.50;14.50;;;;;25.24;45.54;101776.19;5077846;27;47089;-45
2021/09/06 10:43:54;;;;;;;;;18.50;17.25;;;;;25.24;45.26;101760.25;5077679;27;45437;-45
2021/09/06 10:46:24;;;;;;;;;17.50;14.75;;;;;25.24;45.61;101765.56;5077929;27;45421;-49
2021/09/06 10:48:50;;;;;;;;;18.00;16.50;;;;;25.26;45.33;101773.41;5078092;27;45312;-44
2021/09/06 10:51:29;;;;;;;;;16.50;16.00;;;;;25.27;45.14;101757.44;5077878;28;46484;-44
2021/09/06 10:54:02;;;;;;;;;18.00;15.25;;;;;25.28;44.98;101756.50;5077804;28;45705;-46
2021/09/06 10:56:29;;;;;;;;;14.25;14.25;;;;;25.30;45.25;101765.19;5077968;27;45466;-50
2021/09/06 10:58:56;;;;;;;;;20.50;17.50;;;;;25.30;45.50;101764.34;5077951;28;45365;-43
2021/09/06 11:01:22;;;;;;;;;14.50;14.50;;;;;25.31;45.47;101755.44;5077744;28;45478;-44
2021/09/06 11:03:50;;;;;;;;;15.00;14.75;;;;;25.33;45.38;101750.91;5077710;28;45288;-45